createdAt,value
2022-12-31T00:00:08.964Z,100.00
2022-12-31T00:02:36.317Z,100.00
2022-12-31T00:05:04.549Z,100.00
2022-12-31T00:09:57.828Z,100.00
2022-12-31T00:12:25.563Z,100.00
2022-12-31T00:14:52.373Z,100.00
2022-12-31T00:17:19.103Z,100.00
2022-12-31T00:19:45.869Z,100.00
2022-12-31T00:22:12.637Z,100.00
2022-12-31T00:24:39.410Z,100.00
2022-12-31T00:27:06.164Z,100.00
2022-12-31T00:29:32.950Z,100.00
2022-12-31T00:31:59.693Z,100.00
2022-12-31T00:34:26.506Z,100.00
2022-12-31T00:36:53.349Z,100.00
2022-12-31T00:39:20.051Z,100.00
2022-12-31T00:41:46.922Z,100.00
2022-12-31T00:44:14.364Z,100.00
2022-12-31T00:49:07.442Z,100.00
2022-12-31T00:51:34.240Z,100.00
2022-12-31T00:54:01.420Z,100.00
2022-12-31T00:56:30.745Z,100.00
2022-12-31T00:58:59.998Z,100.00
2022-12-31T01:01:38.729Z,100.00
2022-12-31T01:04:13.133Z,100.00
2022-12-31T01:06:40.896Z,100.00
2022-12-31T01:09:08.615Z,100.00
2022-12-31T01:11:35.760Z,100.00
2022-12-31T01:14:08.685Z,100.00
2022-12-31T01:16:52.586Z,100.00
2022-12-31T01:19:27.920Z,100.00
2022-12-31T01:21:56.021Z,100.00
2022-12-31T01:24:23.338Z,100.00
2022-12-31T01:26:51.429Z,100.00
2022-12-31T01:29:18.578Z,100.00
2022-12-31T01:31:45.362Z,100.00
2022-12-31T01:34:12.133Z,100.00
2022-12-31T01:36:39.038Z,100.00
2022-12-31T01:39:07.578Z,100.00
2022-12-31T01:41:37.718Z,100.00
2022-12-31T01:44:13.549Z,100.00
2022-12-31T01:46:52.496Z,100.00
2022-12-31T01:49:31.214Z,100.00
2022-12-31T01:52:03.566Z,100.00
2022-12-31T01:54:34.839Z,100.00
2022-12-31T01:57:02.206Z,100.00
2022-12-31T01:59:29.974Z,100.00
2022-12-31T02:01:56.926Z,100.00
2022-12-31T02:04:26.697Z,100.00
2022-12-31T02:07:07.251Z,100.00
2022-12-31T02:09:38.302Z,100.00
2022-12-31T02:12:06.107Z,100.00
2022-12-31T02:14:46.900Z,100.00
2022-12-31T02:17:50.986Z,100.00
2022-12-31T02:20:49.940Z,100.00
2022-12-31T02:23:38.555Z,100.00
2022-12-31T02:26:31.673Z,100.00
2022-12-31T02:29:19.984Z,100.00
2022-12-31T02:32:03.480Z,100.00
2022-12-31T02:34:30.131Z,100.00
2022-12-31T02:37:01.163Z,100.00
2022-12-31T02:39:29.210Z,100.00
2022-12-31T02:41:55.965Z,100.00
2022-12-31T02:44:27.290Z,100.00
2022-12-31T02:47:09.345Z,100.00
2022-12-31T02:50:03.382Z,100.00
2022-12-31T02:53:03.699Z,100.00
2022-12-31T02:55:30.366Z,100.00
2022-12-31T02:58:15.157Z,100.00
2022-12-31T03:01:08.029Z,100.00
2022-12-31T03:03:36.700Z,100.00
2022-12-31T03:06:04.616Z,100.00
2022-12-31T03:08:31.607Z,100.00
2022-12-31T03:10:58.397Z,100.00
2022-12-31T03:13:25.180Z,100.00
2022-12-31T03:15:51.995Z,100.00
2022-12-31T03:18:39.608Z,100.00
2022-12-31T03:21:35.834Z,100.00
2022-12-31T03:24:21.642Z,100.00
2022-12-31T03:26:48.362Z,100.00
2022-12-31T03:29:15.068Z,100.00
2022-12-31T03:31:41.886Z,100.00
2022-12-31T03:34:08.638Z,100.00
2022-12-31T03:36:35.444Z,100.00
2022-12-31T03:39:02.222Z,100.00
2022-12-31T03:41:28.979Z,100.00
2022-12-31T03:43:55.733Z,100.00
2022-12-31T03:46:22.524Z,100.00
2022-12-31T03:48:49.338Z,100.00
2022-12-31T03:51:16.873Z,100.00
2022-12-31T03:53:43.588Z,100.00
2022-12-31T03:56:10.305Z,100.00
2022-12-31T03:58:37.053Z,100.00
2022-12-31T04:01:04.011Z,100.00
2022-12-31T04:03:30.801Z,100.00
2022-12-31T04:05:57.645Z,100.00
2022-12-31T04:08:25.077Z,100.00
2022-12-31T04:10:51.862Z,100.00
2022-12-31T04:13:18.717Z,100.00
2022-12-31T04:15:45.513Z,100.00
2022-12-31T04:18:12.770Z,100.00
2022-12-31T04:20:39.805Z,100.00
2022-12-31T04:23:06.561Z,100.00
2022-12-31T04:25:33.306Z,100.00
2022-12-31T04:28:00.102Z,100.00
2022-12-31T04:30:26.906Z,100.00
2022-12-31T04:32:53.635Z,100.00
2022-12-31T04:35:20.646Z,100.00
2022-12-31T04:37:47.461Z,100.00
2022-12-31T04:40:14.307Z,100.00
2022-12-31T04:42:41.047Z,100.00
2022-12-31T04:45:08.325Z,100.00
2022-12-31T04:47:35.140Z,100.00
2022-12-31T04:50:01.913Z,100.00
2022-12-31T04:52:28.732Z,100.00
2022-12-31T04:54:55.483Z,100.00
2022-12-31T04:57:22.352Z,100.00
2022-12-31T04:59:49.106Z,100.00
2022-12-31T05:02:15.981Z,100.00
2022-12-31T05:04:42.832Z,100.00
2022-12-31T05:07:09.649Z,100.00
2022-12-31T05:09:36.457Z,100.00
2022-12-31T05:12:03.507Z,100.00
2022-12-31T05:14:30.321Z,100.00
2022-12-31T05:16:58.429Z,100.00
2022-12-31T05:19:25.190Z,100.00
2022-12-31T05:22:10.663Z,100.00
2022-12-31T05:24:37.448Z,100.00
2022-12-31T05:27:04.205Z,100.00
2022-12-31T05:29:31.040Z,100.00
2022-12-31T05:31:57.787Z,100.00
2022-12-31T05:34:24.511Z,100.00
2022-12-31T05:36:51.426Z,100.00
2022-12-31T05:39:18.168Z,100.00
2022-12-31T05:41:44.998Z,100.00
2022-12-31T05:44:11.942Z,100.00
2022-12-31T05:46:38.691Z,100.00
2022-12-31T05:49:05.473Z,100.00
2022-12-31T05:51:32.401Z,100.00
2022-12-31T05:53:59.212Z,100.00
2022-12-31T05:56:26.202Z,100.00
2022-12-31T05:58:53.014Z,100.00
2022-12-31T06:01:19.822Z,100.00
2022-12-31T06:03:47.110Z,100.00
2022-12-31T06:06:14.114Z,100.00
2022-12-31T06:08:40.884Z,100.00
2022-12-31T06:11:07.625Z,100.00
2022-12-31T06:13:34.416Z,100.00
2022-12-31T06:16:09.545Z,100.00
2022-12-31T06:18:37.000Z,100.00
2022-12-31T06:21:04.282Z,100.00
2022-12-31T06:23:31.181Z,100.00
2022-12-31T06:26:02.316Z,100.00
2022-12-31T06:28:29.076Z,100.00
2022-12-31T06:31:03.617Z,100.00
2022-12-31T06:33:30.700Z,100.00
2022-12-31T06:35:59.112Z,100.00
2022-12-31T06:38:27.421Z,100.00
2022-12-31T06:40:54.769Z,100.00
2022-12-31T06:43:21.984Z,100.00
2022-12-31T06:45:49.431Z,100.00
2022-12-31T06:48:16.333Z,100.00
2022-12-31T06:50:43.410Z,100.00
2022-12-31T06:53:10.258Z,100.00
2022-12-31T06:55:37.380Z,100.00
2022-12-31T06:58:04.558Z,100.00
2022-12-31T07:00:31.554Z,100.00
2022-12-31T07:03:22.680Z,100.00
2022-12-31T07:06:27.751Z,100.00
2022-12-31T07:08:54.437Z,100.00
2022-12-31T07:11:24.535Z,100.00
2022-12-31T07:14:12.770Z,100.00
2022-12-31T07:16:42.603Z,100.00
2022-12-31T07:19:45.119Z,100.00
2022-12-31T07:22:15.790Z,100.00
2022-12-31T07:24:44.651Z,100.00
2022-12-31T07:27:46.192Z,100.00
2022-12-31T07:30:17.962Z,100.00
2022-12-31T07:33:08.820Z,100.00
2022-12-31T07:35:45.589Z,100.00
2022-12-31T07:38:15.293Z,100.00
2022-12-31T07:41:09.324Z,100.00
2022-12-31T07:43:46.152Z,100.00
2022-12-31T07:46:47.152Z,100.00
2022-12-31T07:49:14.919Z,100.00
2022-12-31T07:51:43.108Z,100.00
2022-12-31T07:54:14.140Z,100.00
2022-12-31T07:56:41.906Z,100.00
2022-12-31T07:59:26.839Z,100.00
2022-12-31T08:02:24.531Z,100.00
2022-12-31T08:04:51.290Z,100.00
2022-12-31T08:07:30.056Z,100.00
2022-12-31T08:10:18.280Z,100.00
2022-12-31T08:12:47.369Z,100.00
2022-12-31T08:15:16.410Z,100.00
2022-12-31T08:17:43.983Z,100.00
2022-12-31T08:20:15.999Z,100.00
2022-12-31T08:23:01.062Z,100.00
2022-12-31T08:26:02.084Z,100.00
2022-12-31T08:28:47.051Z,100.00
2022-12-31T08:31:20.743Z,100.00
2022-12-31T08:34:06.348Z,100.00
2022-12-31T08:36:50.605Z,100.00
2022-12-31T08:39:34.947Z,100.00
2022-12-31T08:42:09.247Z,100.00
2022-12-31T08:44:52.321Z,100.00
2022-12-31T08:47:31.905Z,100.00
2022-12-31T08:50:02.852Z,100.00
2022-12-31T08:52:30.631Z,100.00
2022-12-31T08:54:58.205Z,100.00
2022-12-31T08:57:40.754Z,100.00
2022-12-31T09:00:07.795Z,100.00
2022-12-31T09:02:46.190Z,100.00
2022-12-31T09:05:45.875Z,100.00
2022-12-31T09:08:40.715Z,100.00
2022-12-31T09:11:25.739Z,100.00
2022-12-31T09:14:06.971Z,100.00
2022-12-31T09:16:48.942Z,100.00
2022-12-31T09:19:15.825Z,100.00
2022-12-31T09:21:46.337Z,100.00
2022-12-31T09:27:14.041Z,100.00
2022-12-31T09:30:04.283Z,100.00
2022-12-31T09:33:01.362Z,100.00
2022-12-31T09:35:40.986Z,100.00
2022-12-31T09:38:32.047Z,100.00
2022-12-31T09:41:23.454Z,100.00
2022-12-31T09:44:05.222Z,100.00
2022-12-31T09:46:35.005Z,100.00
2022-12-31T09:49:29.531Z,100.00
2022-12-31T09:52:14.674Z,100.00
2022-12-31T09:54:52.471Z,100.00
2022-12-31T09:57:49.034Z,100.00
2022-12-31T10:00:22.709Z,100.00
2022-12-31T10:03:07.248Z,100.00
2022-12-31T10:06:37.511Z,100.00
2022-12-31T10:09:41.409Z,100.00
2022-12-31T10:12:42.387Z,100.00
2022-12-31T10:15:27.788Z,100.00
2022-12-31T10:17:57.637Z,100.00
2022-12-31T10:20:45.742Z,100.00
2022-12-31T10:23:46.039Z,100.00
2022-12-31T10:26:37.502Z,100.00
2022-12-31T10:29:22.461Z,100.00
2022-12-31T10:32:13.959Z,100.00
2022-12-31T10:34:58.733Z,100.00
2022-12-31T10:37:41.257Z,100.00
2022-12-31T10:40:32.569Z,100.00
2022-12-31T10:43:08.490Z,100.00
2022-12-31T10:46:03.055Z,100.00
2022-12-31T10:48:59.544Z,100.00
2022-12-31T10:52:16.236Z,100.00
2022-12-31T10:55:10.538Z,100.00
2022-12-31T10:57:46.317Z,98.85
2022-12-31T11:00:21.552Z,95.53
2022-12-31T11:03:03.240Z,95.56
2022-12-31T11:05:48.720Z,96.54
2022-12-31T11:08:52.367Z,95.35
2022-12-31T11:11:35.599Z,96.68
2022-12-31T11:14:30.053Z,95.64
2022-12-31T11:16:57.261Z,95.40
2022-12-31T11:19:56.457Z,92.85
2022-12-31T11:22:32.609Z,93.79
2022-12-31T11:25:02.470Z,91.08
2022-12-31T11:27:56.997Z,90.79
2022-12-31T11:30:47.802Z,90.60
2022-12-31T11:33:20.249Z,91.66
2022-12-31T11:36:18.631Z,91.07
2022-12-31T11:39:07.079Z,92.43
2022-12-31T11:41:38.260Z,91.73
2022-12-31T11:44:23.840Z,91.66
2022-12-31T11:47:09.304Z,91.84
2022-12-31T11:49:59.394Z,90.40
2022-12-31T11:52:57.058Z,91.71
2022-12-31T11:55:35.241Z,90.26
2022-12-31T11:58:18.115Z,91.66
2022-12-31T12:00:54.836Z,91.79
2022-12-31T12:03:21.942Z,93.60
2022-12-31T12:05:48.812Z,93.18
2022-12-31T12:08:16.881Z,92.88
2022-12-31T12:10:53.674Z,94.61
2022-12-31T12:13:26.785Z,93.55
2022-12-31T12:15:59.493Z,92.87
2022-12-31T12:18:33.777Z,92.73
2022-12-31T12:21:10.567Z,90.07
2022-12-31T12:23:37.910Z,90.89
2022-12-31T12:26:05.783Z,90.79
2022-12-31T12:28:44.415Z,90.60
2022-12-31T12:31:21.158Z,89.79
2022-12-31T12:33:50.167Z,90.77
2022-12-31T12:36:19.070Z,90.79
2022-12-31T12:38:45.938Z,90.92
2022-12-31T12:41:25.510Z,91.01
2022-12-31T12:44:14.426Z,90.53
2022-12-31T12:46:49.671Z,89.82
2022-12-31T12:49:24.353Z,88.09
2022-12-31T12:52:27.829Z,89.04
2022-12-31T12:55:25.711Z,88.35
2022-12-31T12:58:08.293Z,88.33
2022-12-31T13:00:55.444Z,87.59
2022-12-31T13:03:32.616Z,87.67
2022-12-31T13:06:26.806Z,86.15
2022-12-31T13:09:12.921Z,86.25
2022-12-31T13:12:02.293Z,86.46
2022-12-31T13:15:10.679Z,85.35
2022-12-31T13:17:56.093Z,84.48
2022-12-31T13:20:42.442Z,85.07
2022-12-31T13:23:21.258Z,83.92
2022-12-31T13:26:25.116Z,83.76
2022-12-31T13:28:53.803Z,85.15
2022-12-31T13:31:29.388Z,85.23
2022-12-31T13:34:01.257Z,84.25
2022-12-31T13:36:30.164Z,83.82
2022-12-31T13:39:01.505Z,83.25
2022-12-31T13:41:39.118Z,84.44
2022-12-31T13:49:35.956Z,81.14
2022-12-31T13:52:30.832Z,80.81
2022-12-31T13:55:13.987Z,80.41
2022-12-31T13:57:53.249Z,81.33
2022-12-31T14:00:20.488Z,82.37
2022-12-31T14:05:37.093Z,80.85
2022-12-31T14:08:06.623Z,80.78
2022-12-31T14:11:11.273Z,80.83
2022-12-31T14:13:54.629Z,81.16
2022-12-31T14:16:21.588Z,81.55
2022-12-31T14:19:01.184Z,82.55
2022-12-31T14:21:49.965Z,82.87
2022-12-31T14:24:46.110Z,84.51
2022-12-31T14:27:22.043Z,83.79
2022-12-31T14:29:51.157Z,84.93
2022-12-31T14:32:36.287Z,84.83
2022-12-31T14:35:40.748Z,85.85
2022-12-31T14:38:16.619Z,86.18
2022-12-31T14:41:20.562Z,87.52
2022-12-31T14:44:18.790Z,88.90
2022-12-31T14:46:54.623Z,90.20
2022-12-31T14:55:09.273Z,91.59
2022-12-31T14:58:16.661Z,91.81
2022-12-31T15:00:28.550Z,92.85
2022-12-31T15:03:00.276Z,92.65
2022-12-31T15:05:36.428Z,94.69
2022-12-31T15:08:17.526Z,95.77
2022-12-31T15:11:22.635Z,94.51
2022-12-31T15:14:01.295Z,94.25
2022-12-31T15:16:57.258Z,94.47
2022-12-31T15:19:26.877Z,96.03
2022-12-31T15:22:31.798Z,95.63
2022-12-31T15:25:01.122Z,95.43
2022-12-31T15:27:42.392Z,96.04
2022-12-31T15:30:29.069Z,96.10
2022-12-31T15:32:59.344Z,96.59
2022-12-31T15:35:32.717Z,99.08
2022-12-31T15:38:11.643Z,100.00
2022-12-31T15:40:51.617Z,100.00
2022-12-31T15:43:24.407Z,99.19
2022-12-31T15:45:55.974Z,99.76
2022-12-31T15:48:43.464Z,99.00
2022-12-31T15:51:18.194Z,98.38
2022-12-31T15:53:52.799Z,99.90
2022-12-31T15:56:27.813Z,99.73
2022-12-31T15:58:58.671Z,100.00
2022-12-31T16:01:32.714Z,100.00
2022-12-31T16:04:14.481Z,100.00
2022-12-31T16:06:44.893Z,100.00
2022-12-31T16:09:24.817Z,100.00
2022-12-31T16:11:53.190Z,100.00
2022-12-31T16:14:26.594Z,100.00
2022-12-31T16:16:57.079Z,100.00
2022-12-31T16:19:29.519Z,100.00
2022-12-31T16:21:58.311Z,100.00
2022-12-31T16:24:32.514Z,100.00
2022-12-31T16:27:06.492Z,100.00
2022-12-31T16:29:42.721Z,100.00
2022-12-31T16:32:15.991Z,100.00
2022-12-31T16:34:43.801Z,100.00
2022-12-31T16:37:22.981Z,100.00
2022-12-31T16:39:58.994Z,100.00
2022-12-31T16:42:30.790Z,100.00
2022-12-31T16:44:58.037Z,100.00
2022-12-31T16:47:34.332Z,100.00
2022-12-31T16:50:13.899Z,100.00
2022-12-31T16:52:43.899Z,100.00
2022-12-31T16:55:18.283Z,100.00
2022-12-31T16:57:54.142Z,100.00
2022-12-31T17:00:21.865Z,100.00
2022-12-31T17:02:56.632Z,100.00
2022-12-31T17:05:25.842Z,100.00
2022-12-31T17:07:53.279Z,100.00
2022-12-31T17:10:24.063Z,100.00
2022-12-31T17:15:45.228Z,100.00
2022-12-31T17:18:20.096Z,100.00
2022-12-31T17:20:48.392Z,100.00
2022-12-31T17:23:28.442Z,100.00
2022-12-31T17:26:19.580Z,100.00
2022-12-31T17:28:49.020Z,100.00
2022-12-31T17:31:39.630Z,100.00
2022-12-31T17:34:15.284Z,100.00
2022-12-31T17:37:02.150Z,100.00
2022-12-31T17:39:45.270Z,100.00
2022-12-31T17:42:13.897Z,100.00
2022-12-31T17:44:43.630Z,100.00
2022-12-31T17:47:14.284Z,100.00
2022-12-31T17:49:44.902Z,100.00
2022-12-31T17:52:16.124Z,100.00
2022-12-31T17:54:42.980Z,100.00
2022-12-31T17:57:25.976Z,100.00
2022-12-31T17:59:52.904Z,100.00
2022-12-31T18:02:19.974Z,100.00
2022-12-31T18:04:46.908Z,100.00
2022-12-31T18:07:13.696Z,100.00
2022-12-31T18:09:40.499Z,100.00
2022-12-31T18:12:08.804Z,100.00
2022-12-31T18:14:35.650Z,100.00
2022-12-31T18:17:02.474Z,100.00
2022-12-31T18:22:16.347Z,100.00
2022-12-31T18:24:44.345Z,100.00
2022-12-31T18:27:18.796Z,100.00
2022-12-31T18:29:46.292Z,100.00
2022-12-31T18:32:33.559Z,100.00
2022-12-31T18:35:00.310Z,100.00
2022-12-31T18:37:29.123Z,100.00
2022-12-31T18:39:55.991Z,100.00
2022-12-31T18:42:26.316Z,100.00
2022-12-31T18:44:53.045Z,100.00
2022-12-31T18:47:23.282Z,100.00
2022-12-31T18:49:50.792Z,100.00
2022-12-31T18:52:21.790Z,100.00
2022-12-31T18:54:49.214Z,100.00
2022-12-31T18:57:16.703Z,100.00
2022-12-31T18:59:43.526Z,100.00
2022-12-31T19:02:19.021Z,100.00
2022-12-31T19:04:46.816Z,100.00
2022-12-31T19:07:13.687Z,100.00
2022-12-31T19:09:45.530Z,100.00
2022-12-31T19:12:15.102Z,100.00
2022-12-31T19:14:42.078Z,100.00
2022-12-31T19:19:35.065Z,100.00
2022-12-31T19:22:02.866Z,100.00
2022-12-31T19:24:29.910Z,100.00
2022-12-31T19:26:56.683Z,100.00
2022-12-31T19:29:26.155Z,100.00
2022-12-31T19:31:53.250Z,100.00
2022-12-31T19:34:20.133Z,100.00
2022-12-31T19:36:47.113Z,100.00
2022-12-31T19:39:17.304Z,100.00
2022-12-31T19:41:44.541Z,100.00
2022-12-31T19:44:16.728Z,100.00
2022-12-31T19:46:43.708Z,100.00
2022-12-31T19:49:14.806Z,100.00
2022-12-31T19:51:42.106Z,100.00
2022-12-31T19:54:09.126Z,100.00
2022-12-31T19:56:36.073Z,100.00
2022-12-31T19:59:07.876Z,100.00
2022-12-31T20:01:34.710Z,100.00
2022-12-31T20:04:01.918Z,100.00
2022-12-31T20:06:28.836Z,100.00
2022-12-31T20:08:55.578Z,100.00
2022-12-31T20:11:24.519Z,100.00
2022-12-31T20:13:53.866Z,100.00
2022-12-31T20:16:23.875Z,100.00
2022-12-31T20:18:50.964Z,100.00
2022-12-31T20:21:23.672Z,100.00
2022-12-31T20:23:52.368Z,100.00
2022-12-31T20:26:20.725Z,100.00
2022-12-31T20:28:47.746Z,100.00
2022-12-31T20:31:17.298Z,100.00
2022-12-31T20:33:44.542Z,100.00
2022-12-31T20:36:13.760Z,100.00
2022-12-31T20:38:40.614Z,100.00
2022-12-31T20:41:13.155Z,100.00
2022-12-31T20:43:40.431Z,100.00
2022-12-31T20:46:16.308Z,100.00
2022-12-31T20:48:46.628Z,100.00
2022-12-31T20:51:14.784Z,100.00
2022-12-31T20:53:48.215Z,100.00
2022-12-31T20:56:15.076Z,100.00
2022-12-31T20:58:42.032Z,100.00
2022-12-31T21:01:11.055Z,100.00
2022-12-31T21:04:04.903Z,100.00
2022-12-31T21:06:26.451Z,100.00
2022-12-31T21:08:56.420Z,100.00
2022-12-31T21:11:41.654Z,100.00
2022-12-31T21:14:08.554Z,100.00
2022-12-31T21:16:35.576Z,100.00
2022-12-31T21:19:02.589Z,100.00
2022-12-31T21:21:29.470Z,100.00
2022-12-31T21:23:56.297Z,100.00
2022-12-31T21:26:24.460Z,100.00
2022-12-31T21:28:51.411Z,100.00
2022-12-31T21:31:18.345Z,100.00
2022-12-31T21:33:46.931Z,100.00
2022-12-31T21:36:14.723Z,100.00
2022-12-31T21:38:41.917Z,100.00
2022-12-31T21:41:32.940Z,100.00
2022-12-31T21:44:01.114Z,100.00
2022-12-31T21:46:28.099Z,100.00
2022-12-31T21:48:59.526Z,100.00
2022-12-31T21:51:26.951Z,100.00
2022-12-31T21:53:53.742Z,100.00
2022-12-31T21:56:21.723Z,100.00
2022-12-31T21:59:17.133Z,100.00
2022-12-31T22:02:02.862Z,100.00
2022-12-31T22:07:16.833Z,100.00
2022-12-31T22:09:43.650Z,100.00
2022-12-31T22:12:10.444Z,100.00
2022-12-31T22:14:37.177Z,100.00
2022-12-31T22:17:04.005Z,100.00
2022-12-31T22:19:30.785Z,100.00
2022-12-31T22:21:57.574Z,100.00
2022-12-31T22:24:24.353Z,100.00
2022-12-31T22:26:52.325Z,100.00
2022-12-31T22:29:19.944Z,100.00
2022-12-31T22:31:46.703Z,100.00
2022-12-31T22:34:13.442Z,100.00
2022-12-31T22:36:40.209Z,100.00
2022-12-31T22:39:07.019Z,100.00
2022-12-31T22:41:35.093Z,100.00
2022-12-31T22:44:04.821Z,100.00
2022-12-31T22:46:32.842Z,100.00
2022-12-31T22:49:01.202Z,100.00
2022-12-31T22:51:54.922Z,100.00
2022-12-31T22:54:15.776Z,100.00
2022-12-31T22:56:42.608Z,100.00
2022-12-31T22:59:10.057Z,100.00
2022-12-31T23:01:37.083Z,100.00
2022-12-31T23:04:04.884Z,100.00
2022-12-31T23:06:32.281Z,100.00
2022-12-31T23:09:17.727Z,100.00
2022-12-31T23:11:44.600Z,100.00
2022-12-31T23:14:35.345Z,100.00
2022-12-31T23:17:29.691Z,100.00
2022-12-31T23:20:18.710Z,100.00
2022-12-31T23:23:05.053Z,100.00
2022-12-31T23:25:33.311Z,100.00
2022-12-31T23:28:00.121Z,100.00
2022-12-31T23:30:26.969Z,100.00
2022-12-31T23:32:53.738Z,100.00
2022-12-31T23:35:20.668Z,100.00
2022-12-31T23:37:47.454Z,100.00
2022-12-31T23:40:20.714Z,100.00
2022-12-31T23:42:48.392Z,100.00
2022-12-31T23:45:15.275Z,100.00
2022-12-31T23:47:42.050Z,100.00
2022-12-31T23:50:09.069Z,100.00
2022-12-31T23:52:35.967Z,100.00
2022-12-31T23:55:06.117Z,100.00
2022-12-31T23:57:32.871Z,100.00
